sensor_id;sensor_type;location;lat;lon;timestamp;temperature;humidity
2907;DHT22;1463;51.070;16.998;2023-11-22T00:01:18;4.30;99.90
2907;DHT22;1463;51.070;16.998;2023-11-22T00:03:45;4.30;99.90
2907;DHT22;1463;51.070;16.998;2023-11-22T00:06:12;3.90;99.90
2907;DHT22;1463;51.070;16.998;2023-11-22T00:08:40;4.00;99.90
2907;DHT22;1463;51.070;16.998;2023-11-22T00:11:08;4.10;99.90
2907;DHT22;1463;51.070;16.998;2023-11-22T00:13:35;4.20;99.90
2907;DHT22;1463;51.070;16.998;2023-11-22T00:16:02;4.00;99.90
2907;DHT22;1463;51.070;16.998;2023-11-22T00:18:29;3.80;99.90
2907;DHT22;1463;51.070;16.998;2023-11-22T00:20:56;4.00;99.90
2907;DHT22;1463;51.070;16.998;2023-11-22T00:23:24;3.90;99.90
2907;DHT22;1463;51.070;16.998;2023-11-22T00:25:56;3.90;99.90
2907;DHT22;1463;51.070;16.998;2023-11-22T00:28:23;3.90;99.90
2907;DHT22;1463;51.070;16.998;2023-11-22T00:30:49;3.90;99.90
2907;DHT22;1463;51.070;16.998;2023-11-22T00:33:16;4.00;99.90
2907;DHT22;1463;51.070;16.998;2023-11-22T00:35:45;4.00;99.90
2907;DHT22;1463;51.070;16.998;2023-11-22T00:38:12;4.00;99.90
2907;DHT22;1463;51.070;16.998;2023-11-22T00:40:39;4.00;99.90
2907;DHT22;1463;51.070;16.998;2023-11-22T00:43:07;3.90;99.90
2907;DHT22;1463;51.070;16.998;2023-11-22T00:45:34;3.90;99.90
2907;DHT22;1463;51.070;16.998;2023-11-22T00:48:01;3.90;99.90
2907;DHT22;1463;51.070;16.998;2023-11-22T00:50:28;3.90;99.90
2907;DHT22;1463;51.070;16.998;2023-11-22T00:52:55;3.90;99.90
2907;DHT22;1463;51.070;16.998;2023-11-22T00:55:22;3.70;99.90
2907;DHT22;1463;51.070;16.998;2023-11-22T00:57:49;3.80;99.90
2907;DHT22;1463;51.070;16.998;2023-11-22T01:00:19;3.90;99.90
2907;DHT22;1463;51.070;16.998;2023-11-22T01:02:49;3.70;99.90
2907;DHT22;1463;51.070;16.998;2023-11-22T01:05:16;3.80;99.90
2907;DHT22;1463;51.070;16.998;2023-11-22T01:07:43;3.80;99.90
2907;DHT22;1463;51.070;16.998;2023-11-22T01:10:13;3.60;99.90
2907;DHT22;1463;51.070;16.998;2023-11-22T01:12:43;3.80;99.90
2907;DHT22;1463;51.070;16.998;2023-11-22T01:15:10;3.80;99.90
2907;DHT22;1463;51.070;16.998;2023-11-22T01:17:39;3.80;99.90
2907;DHT22;1463;51.070;16.998;2023-11-22T01:20:09;3.70;99.90
2907;DHT22;1463;51.070;16.998;2023-11-22T01:22:37;3.60;99.90
2907;DHT22;1463;51.070;16.998;2023-11-22T01:25:05;3.60;99.90
2907;DHT22;1463;51.070;16.998;2023-11-22T01:27:32;3.50;99.90
2907;DHT22;1463;51.070;16.998;2023-11-22T01:29:58;3.30;99.90
2907;DHT22;1463;51.070;16.998;2023-11-22T01:32:25;3.50;99.90
2907;DHT22;1463;51.070;16.998;2023-11-22T01:34:53;3.50;99.90
2907;DHT22;1463;51.070;16.998;2023-11-22T01:37:24;3.60;99.90
2907;DHT22;1463;51.070;16.998;2023-11-22T01:39:51;3.50;99.90
2907;DHT22;1463;51.070;16.998;2023-11-22T01:42:18;3.60;99.90
2907;DHT22;1463;51.070;16.998;2023-11-22T01:44:46;3.50;99.90
2907;DHT22;1463;51.070;16.998;2023-11-22T01:47:13;3.40;99.90
2907;DHT22;1463;51.070;16.998;2023-11-22T01:49:41;3.50;99.90
2907;DHT22;1463;51.070;16.998;2023-11-22T01:52:09;3.50;99.90
2907;DHT22;1463;51.070;16.998;2023-11-22T01:54:37;3.40;99.90
2907;DHT22;1463;51.070;16.998;2023-11-22T01:57:05;3.30;99.90
2907;DHT22;1463;51.070;16.998;2023-11-22T01:59:34;3.50;99.90
2907;DHT22;1463;51.070;16.998;2023-11-22T02:02:01;3.50;99.90
2907;DHT22;1463;51.070;16.998;2023-11-22T02:04:29;3.50;99.90
2907;DHT22;1463;51.070;16.998;2023-11-22T02:06:56;3.60;99.90
2907;DHT22;1463;51.070;16.998;2023-11-22T02:09:25;3.50;99.90
2907;DHT22;1463;51.070;16.998;2023-11-22T02:11:52;3.50;99.90
2907;DHT22;1463;51.070;16.998;2023-11-22T02:14:18;3.70;99.90
2907;DHT22;1463;51.070;16.998;2023-11-22T02:16:46;3.40;99.90
2907;DHT22;1463;51.070;16.998;2023-11-22T02:19:15;3.30;99.90
2907;DHT22;1463;51.070;16.998;2023-11-22T02:21:42;3.50;99.90
2907;DHT22;1463;51.070;16.998;2023-11-22T02:24:10;3.50;99.90
2907;DHT22;1463;51.070;16.998;2023-11-22T02:26:37;3.40;99.90
2907;DHT22;1463;51.070;16.998;2023-11-22T02:29:04;3.40;99.90
2907;DHT22;1463;51.070;16.998;2023-11-22T02:31:32;3.00;99.90
2907;DHT22;1463;51.070;16.998;2023-11-22T02:33:59;3.20;99.90
2907;DHT22;1463;51.070;16.998;2023-11-22T02:36:26;3.20;99.90
2907;DHT22;1463;51.070;16.998;2023-11-22T02:38:53;3.30;99.90
2907;DHT22;1463;51.070;16.998;2023-11-22T02:41:24;3.20;99.90
2907;DHT22;1463;51.070;16.998;2023-11-22T02:43:56;3.20;99.90
2907;DHT22;1463;51.070;16.998;2023-11-22T02:46:22;3.30;99.90
2907;DHT22;1463;51.070;16.998;2023-11-22T02:48:49;3.40;99.90
2907;DHT22;1463;51.070;16.998;2023-11-22T02:51:15;3.30;99.90
2907;DHT22;1463;51.070;16.998;2023-11-22T02:53:43;3.40;99.90
2907;DHT22;1463;51.070;16.998;2023-11-22T02:56:11;3.40;99.90
2907;DHT22;1463;51.070;16.998;2023-11-22T02:58:40;3.30;99.90
2907;DHT22;1463;51.070;16.998;2023-11-22T03:01:07;3.40;99.90
2907;DHT22;1463;51.070;16.998;2023-11-22T03:03:34;3.50;99.90
2907;DHT22;1463;51.070;16.998;2023-11-22T03:06:01;3.50;99.90
2907;DHT22;1463;51.070;16.998;2023-11-22T03:08:28;3.30;99.90
2907;DHT22;1463;51.070;16.998;2023-11-22T03:10:54;3.10;99.90
2907;DHT22;1463;51.070;16.998;2023-11-22T03:13:21;3.30;99.90
2907;DHT22;1463;51.070;16.998;2023-11-22T03:15:49;3.20;99.90
2907;DHT22;1463;51.070;16.998;2023-11-22T03:18:16;3.30;99.90
2907;DHT22;1463;51.070;16.998;2023-11-22T03:20:43;3.30;99.90
2907;DHT22;1463;51.070;16.998;2023-11-22T03:23:10;3.30;99.90
2907;DHT22;1463;51.070;16.998;2023-11-22T03:25:37;3.20;99.90
2907;DHT22;1463;51.070;16.998;2023-11-22T03:28:04;3.30;99.90
2907;DHT22;1463;51.070;16.998;2023-11-22T03:30:31;3.30;99.90
2907;DHT22;1463;51.070;16.998;2023-11-22T03:32:59;3.10;99.90
2907;DHT22;1463;51.070;16.998;2023-11-22T03:35:26;3.10;99.90
2907;DHT22;1463;51.070;16.998;2023-11-22T03:37:54;3.20;99.90
2907;DHT22;1463;51.070;16.998;2023-11-22T03:40:21;3.20;99.90
2907;DHT22;1463;51.070;16.998;2023-11-22T03:42:48;3.20;99.90
2907;DHT22;1463;51.070;16.998;2023-11-22T03:45:14;3.30;99.90
2907;DHT22;1463;51.070;16.998;2023-11-22T03:47:41;3.30;99.90
2907;DHT22;1463;51.070;16.998;2023-11-22T03:50:10;3.20;99.90
2907;DHT22;1463;51.070;16.998;2023-11-22T03:52:36;3.20;99.90
2907;DHT22;1463;51.070;16.998;2023-11-22T03:55:04;3.20;99.90
2907;DHT22;1463;51.070;16.998;2023-11-22T03:57:31;3.10;99.90
2907;DHT22;1463;51.070;16.998;2023-11-22T03:59:57;3.10;99.90
2907;DHT22;1463;51.070;16.998;2023-11-22T04:02:26;3.10;99.90
2907;DHT22;1463;51.070;16.998;2023-11-22T04:04:54;3.20;99.90
2907;DHT22;1463;51.070;16.998;2023-11-22T04:07:24;3.10;99.90
2907;DHT22;1463;51.070;16.998;2023-11-22T04:09:50;3.00;99.90
2907;DHT22;1463;51.070;16.998;2023-11-22T04:12:17;3.00;99.90
2907;DHT22;1463;51.070;16.998;2023-11-22T04:14:44;2.70;99.90
2907;DHT22;1463;51.070;16.998;2023-11-22T04:17:11;2.90;99.90
2907;DHT22;1463;51.070;16.998;2023-11-22T04:19:38;3.00;99.90
2907;DHT22;1463;51.070;16.998;2023-11-22T04:22:05;3.00;99.90
2907;DHT22;1463;51.070;16.998;2023-11-22T04:24:33;2.90;99.90
2907;DHT22;1463;51.070;16.998;2023-11-22T04:27:00;2.90;99.90
2907;DHT22;1463;51.070;16.998;2023-11-22T04:29:28;2.60;99.90
2907;DHT22;1463;51.070;16.998;2023-11-22T04:31:55;2.60;99.90
2907;DHT22;1463;51.070;16.998;2023-11-22T04:34:22;2.80;99.90
2907;DHT22;1463;51.070;16.998;2023-11-22T04:36:48;2.80;99.90
2907;DHT22;1463;51.070;16.998;2023-11-22T04:39:15;2.70;99.90
2907;DHT22;1463;51.070;16.998;2023-11-22T04:41:44;2.40;99.90
2907;DHT22;1463;51.070;16.998;2023-11-22T04:44:11;2.60;99.90
2907;DHT22;1463;51.070;16.998;2023-11-22T04:46:38;2.70;99.90
2907;DHT22;1463;51.070;16.998;2023-11-22T04:49:05;2.80;99.90
2907;DHT22;1463;51.070;16.998;2023-11-22T04:51:33;2.80;99.90
2907;DHT22;1463;51.070;16.998;2023-11-22T04:54:00;2.80;99.90
2907;DHT22;1463;51.070;16.998;2023-11-22T04:56:26;2.60;99.90
2907;DHT22;1463;51.070;16.998;2023-11-22T04:58:54;2.60;99.90
2907;DHT22;1463;51.070;16.998;2023-11-22T05:01:24;2.70;99.90
2907;DHT22;1463;51.070;16.998;2023-11-22T05:03:50;2.70;99.90
2907;DHT22;1463;51.070;16.998;2023-11-22T05:06:17;2.70;99.90
2907;DHT22;1463;51.070;16.998;2023-11-22T05:08:44;2.70;99.90
2907;DHT22;1463;51.070;16.998;2023-11-22T05:11:11;2.70;99.90
2907;DHT22;1463;51.070;16.998;2023-11-22T05:13:37;2.80;99.90
2907;DHT22;1463;51.070;16.998;2023-11-22T05:16:06;2.80;99.90
2907;DHT22;1463;51.070;16.998;2023-11-22T05:18:33;2.80;99.90
2907;DHT22;1463;51.070;16.998;2023-11-22T05:21:01;2.80;99.90
2907;DHT22;1463;51.070;16.998;2023-11-22T05:23:28;2.70;99.90
2907;DHT22;1463;51.070;16.998;2023-11-22T05:25:55;2.80;99.90
2907;DHT22;1463;51.070;16.998;2023-11-22T05:28:22;2.80;99.90
2907;DHT22;1463;51.070;16.998;2023-11-22T05:30:49;2.80;99.90
2907;DHT22;1463;51.070;16.998;2023-11-22T05:33:17;2.80;99.90
2907;DHT22;1463;51.070;16.998;2023-11-22T05:35:44;2.90;99.90
2907;DHT22;1463;51.070;16.998;2023-11-22T05:38:11;2.80;99.90
2907;DHT22;1463;51.070;16.998;2023-11-22T05:40:37;2.90;99.90
2907;DHT22;1463;51.070;16.998;2023-11-22T05:43:05;2.90;99.90
2907;DHT22;1463;51.070;16.998;2023-11-22T05:45:34;2.90;99.90
2907;DHT22;1463;51.070;16.998;2023-11-22T05:48:01;2.80;99.90
2907;DHT22;1463;51.070;16.998;2023-11-22T05:50:29;2.90;99.90
2907;DHT22;1463;51.070;16.998;2023-11-22T05:52:56;2.90;99.90
2907;DHT22;1463;51.070;16.998;2023-11-22T05:55:23;3.00;99.90
2907;DHT22;1463;51.070;16.998;2023-11-22T05:57:50;3.00;99.90
2907;DHT22;1463;51.070;16.998;2023-11-22T06:00:16;3.00;99.90
2907;DHT22;1463;51.070;16.998;2023-11-22T06:02:44;3.10;99.90
2907;DHT22;1463;51.070;16.998;2023-11-22T06:05:10;3.00;99.90
2907;DHT22;1463;51.070;16.998;2023-11-22T06:07:39;3.00;99.90
2907;DHT22;1463;51.070;16.998;2023-11-22T06:10:06;3.00;99.90
2907;DHT22;1463;51.070;16.998;2023-11-22T06:12:33;3.10;99.90
2907;DHT22;1463;51.070;16.998;2023-11-22T06:15:00;3.10;99.90
2907;DHT22;1463;51.070;16.998;2023-11-22T06:17:26;3.10;99.90
2907;DHT22;1463;51.070;16.998;2023-11-22T06:19:55;3.10;99.90
2907;DHT22;1463;51.070;16.998;2023-11-22T06:22:24;3.00;99.90
2907;DHT22;1463;51.070;16.998;2023-11-22T06:24:52;3.00;99.90
2907;DHT22;1463;51.070;16.998;2023-11-22T06:27:19;3.00;99.90
2907;DHT22;1463;51.070;16.998;2023-11-22T06:29:46;3.00;99.90
2907;DHT22;1463;51.070;16.998;2023-11-22T06:32:12;3.00;99.90
2907;DHT22;1463;51.070;16.998;2023-11-22T06:34:39;3.00;99.90
2907;DHT22;1463;51.070;16.998;2023-11-22T06:37:06;3.10;99.90
2907;DHT22;1463;51.070;16.998;2023-11-22T06:39:34;3.00;99.90
2907;DHT22;1463;51.070;16.998;2023-11-22T06:42:06;3.10;99.90
2907;DHT22;1463;51.070;16.998;2023-11-22T06:44:34;3.00;99.90
2907;DHT22;1463;51.070;16.998;2023-11-22T06:47:00;2.90;99.90
2907;DHT22;1463;51.070;16.998;2023-11-22T06:49:27;2.80;99.90
2907;DHT22;1463;51.070;16.998;2023-11-22T06:51:54;2.80;99.90
2907;DHT22;1463;51.070;16.998;2023-11-22T06:54:21;2.90;99.90
2907;DHT22;1463;51.070;16.998;2023-11-22T06:56:48;2.90;99.90
2907;DHT22;1463;51.070;16.998;2023-11-22T06:59:17;3.00;99.90
2907;DHT22;1463;51.070;16.998;2023-11-22T07:01:44;3.00;99.90
2907;DHT22;1463;51.070;16.998;2023-11-22T07:04:11;3.00;99.90
2907;DHT22;1463;51.070;16.998;2023-11-22T07:06:38;3.00;99.90
2907;DHT22;1463;51.070;16.998;2023-11-22T07:09:05;3.00;99.90
2907;DHT22;1463;51.070;16.998;2023-11-22T07:11:35;3.00;99.90
2907;DHT22;1463;51.070;16.998;2023-11-22T07:14:03;2.80;99.90
2907;DHT22;1463;51.070;16.998;2023-11-22T07:16:31;2.80;99.90
2907;DHT22;1463;51.070;16.998;2023-11-22T07:18:59;2.90;99.90
2907;DHT22;1463;51.070;16.998;2023-11-22T07:21:25;2.90;99.90
2907;DHT22;1463;51.070;16.998;2023-11-22T07:23:52;2.90;99.90
2907;DHT22;1463;51.070;16.998;2023-11-22T07:26:19;2.90;99.90
2907;DHT22;1463;51.070;16.998;2023-11-22T07:28:46;2.90;99.90
2907;DHT22;1463;51.070;16.998;2023-11-22T07:31:13;2.90;99.90
2907;DHT22;1463;51.070;16.998;2023-11-22T07:33:43;2.90;99.90
2907;DHT22;1463;51.070;16.998;2023-11-22T07:36:10;3.00;99.90
2907;DHT22;1463;51.070;16.998;2023-11-22T07:38:40;2.90;99.90
2907;DHT22;1463;51.070;16.998;2023-11-22T07:41:08;2.90;99.90
2907;DHT22;1463;51.070;16.998;2023-11-22T07:43:36;3.00;99.90
2907;DHT22;1463;51.070;16.998;2023-11-22T07:46:05;2.80;99.90
2907;DHT22;1463;51.070;16.998;2023-11-22T07:48:34;2.70;99.90
2907;DHT22;1463;51.070;16.998;2023-11-22T07:51:04;2.70;99.90
2907;DHT22;1463;51.070;16.998;2023-11-22T07:53:32;2.80;99.90
2907;DHT22;1463;51.070;16.998;2023-11-22T07:55:59;2.80;99.90
2907;DHT22;1463;51.070;16.998;2023-11-22T07:58:29;2.70;99.90
2907;DHT22;1463;51.070;16.998;2023-11-22T08:00:57;2.80;99.90
2907;DHT22;1463;51.070;16.998;2023-11-22T08:03:23;2.90;99.90
2907;DHT22;1463;51.070;16.998;2023-11-22T08:05:50;3.00;99.90
2907;DHT22;1463;51.070;16.998;2023-11-22T08:08:20;3.00;99.90
2907;DHT22;1463;51.070;16.998;2023-11-22T08:10:51;2.90;99.90
2907;DHT22;1463;51.070;16.998;2023-11-22T08:13:19;2.90;99.90
2907;DHT22;1463;51.070;16.998;2023-11-22T08:15:48;2.90;99.90
2907;DHT22;1463;51.070;16.998;2023-11-22T08:18:16;2.90;99.90
2907;DHT22;1463;51.070;16.998;2023-11-22T08:20:44;2.70;99.90
2907;DHT22;1463;51.070;16.998;2023-11-22T08:23:10;2.80;99.90
2907;DHT22;1463;51.070;16.998;2023-11-22T08:25:39;2.60;99.90
2907;DHT22;1463;51.070;16.998;2023-11-22T08:28:06;2.80;99.90
2907;DHT22;1463;51.070;16.998;2023-11-22T08:30:33;2.70;99.90
2907;DHT22;1463;51.070;16.998;2023-11-22T08:33:01;2.90;99.90
2907;DHT22;1463;51.070;16.998;2023-11-22T08:35:28;2.80;99.90
2907;DHT22;1463;51.070;16.998;2023-11-22T08:37:55;2.70;99.90
2907;DHT22;1463;51.070;16.998;2023-11-22T08:40:23;2.80;99.90
2907;DHT22;1463;51.070;16.998;2023-11-22T08:42:53;2.90;99.90
2907;DHT22;1463;51.070;16.998;2023-11-22T08:45:20;2.90;99.90
2907;DHT22;1463;51.070;16.998;2023-11-22T08:47:47;2.80;99.90
2907;DHT22;1463;51.070;16.998;2023-11-22T08:50:15;2.80;99.90
2907;DHT22;1463;51.070;16.998;2023-11-22T08:52:43;2.90;99.90
2907;DHT22;1463;51.070;16.998;2023-11-22T08:55:10;2.90;99.90
2907;DHT22;1463;51.070;16.998;2023-11-22T08:57:38;3.00;99.90
2907;DHT22;1463;51.070;16.998;2023-11-22T09:00:08;3.00;99.90
2907;DHT22;1463;51.070;16.998;2023-11-22T09:02:36;3.00;99.90
2907;DHT22;1463;51.070;16.998;2023-11-22T09:05:05;3.00;99.90
2907;DHT22;1463;51.070;16.998;2023-11-22T09:07:33;3.10;99.90
2907;DHT22;1463;51.070;16.998;2023-11-22T09:10:01;3.10;99.90
2907;DHT22;1463;51.070;16.998;2023-11-22T09:12:35;3.20;99.90
2907;DHT22;1463;51.070;16.998;2023-11-22T09:15:02;3.10;99.90
2907;DHT22;1463;51.070;16.998;2023-11-22T09:17:31;3.10;99.90
2907;DHT22;1463;51.070;16.998;2023-11-22T09:19:57;3.20;99.90
2907;DHT22;1463;51.070;16.998;2023-11-22T09:22:24;3.30;99.90
2907;DHT22;1463;51.070;16.998;2023-11-22T09:24:54;3.30;99.90
2907;DHT22;1463;51.070;16.998;2023-11-22T09:27:24;3.30;99.90
2907;DHT22;1463;51.070;16.998;2023-11-22T09:29:51;3.30;99.90
2907;DHT22;1463;51.070;16.998;2023-11-22T09:32:19;3.20;99.90
2907;DHT22;1463;51.070;16.998;2023-11-22T09:34:47;3.20;99.90
2907;DHT22;1463;51.070;16.998;2023-11-22T09:37:15;3.30;99.90
2907;DHT22;1463;51.070;16.998;2023-11-22T09:39:41;3.30;99.90
2907;DHT22;1463;51.070;16.998;2023-11-22T09:42:08;3.40;99.90
2907;DHT22;1463;51.070;16.998;2023-11-22T09:44:37;3.50;99.90
2907;DHT22;1463;51.070;16.998;2023-11-22T09:47:04;3.40;99.90
2907;DHT22;1463;51.070;16.998;2023-11-22T09:49:32;3.40;99.90
2907;DHT22;1463;51.070;16.998;2023-11-22T09:52:04;3.40;99.90
2907;DHT22;1463;51.070;16.998;2023-11-22T09:54:34;3.40;99.90
2907;DHT22;1463;51.070;16.998;2023-11-22T09:57:01;3.40;99.90
2907;DHT22;1463;51.070;16.998;2023-11-22T09:59:34;3.40;99.90
2907;DHT22;1463;51.070;16.998;2023-11-22T10:02:02;3.40;99.90
2907;DHT22;1463;51.070;16.998;2023-11-22T10:04:32;3.50;99.90
2907;DHT22;1463;51.070;16.998;2023-11-22T10:07:01;3.50;99.90
2907;DHT22;1463;51.070;16.998;2023-11-22T10:09:28;3.40;99.90
2907;DHT22;1463;51.070;16.998;2023-11-22T10:12:01;3.40;99.90
2907;DHT22;1463;51.070;16.998;2023-11-22T10:14:29;3.40;99.90
2907;DHT22;1463;51.070;16.998;2023-11-22T10:17:00;3.50;99.90
2907;DHT22;1463;51.070;16.998;2023-11-22T10:19:27;3.40;99.90
2907;DHT22;1463;51.070;16.998;2023-11-22T10:22:06;3.50;99.90
2907;DHT22;1463;51.070;16.998;2023-11-22T10:24:34;3.50;99.90
2907;DHT22;1463;51.070;16.998;2023-11-22T10:27:01;3.50;99.90
2907;DHT22;1463;51.070;16.998;2023-11-22T10:29:28;3.50;99.90
2907;DHT22;1463;51.070;16.998;2023-11-22T10:31:55;3.50;99.90
2907;DHT22;1463;51.070;16.998;2023-11-22T10:34:23;3.50;99.90
2907;DHT22;1463;51.070;16.998;2023-11-22T10:36:50;3.50;99.90
2907;DHT22;1463;51.070;16.998;2023-11-22T10:39:20;3.50;99.90
2907;DHT22;1463;51.070;16.998;2023-11-22T10:41:47;3.50;99.90
2907;DHT22;1463;51.070;16.998;2023-11-22T10:44:16;3.40;99.90
2907;DHT22;1463;51.070;16.998;2023-11-22T10:46:47;3.40;99.90
2907;DHT22;1463;51.070;16.998;2023-11-22T10:49:14;3.50;99.90
2907;DHT22;1463;51.070;16.998;2023-11-22T10:51:41;3.50;99.90
2907;DHT22;1463;51.070;16.998;2023-11-22T10:54:10;3.40;99.90
2907;DHT22;1463;51.070;16.998;2023-11-22T10:56:40;3.50;99.90
2907;DHT22;1463;51.070;16.998;2023-11-22T10:59:11;3.60;99.90
2907;DHT22;1463;51.070;16.998;2023-11-22T11:01:44;3.70;99.90
2907;DHT22;1463;51.070;16.998;2023-11-22T11:04:23;3.60;99.90
2907;DHT22;1463;51.070;16.998;2023-11-22T11:06:53;3.80;99.90
2907;DHT22;1463;51.070;16.998;2023-11-22T11:09:24;3.90;99.90
2907;DHT22;1463;51.070;16.998;2023-11-22T11:11:59;3.90;99.90
2907;DHT22;1463;51.070;16.998;2023-11-22T11:14:28;3.70;99.90
2907;DHT22;1463;51.070;16.998;2023-11-22T11:16:55;3.80;99.90
2907;DHT22;1463;51.070;16.998;2023-11-22T11:19:24;3.80;99.90
2907;DHT22;1463;51.070;16.998;2023-11-22T11:21:51;3.80;99.90
2907;DHT22;1463;51.070;16.998;2023-11-22T11:24:18;3.80;99.90
2907;DHT22;1463;51.070;16.998;2023-11-22T11:26:48;3.80;99.90
2907;DHT22;1463;51.070;16.998;2023-11-22T11:29:31;3.70;99.90
2907;DHT22;1463;51.070;16.998;2023-11-22T11:31:58;3.60;99.90
2907;DHT22;1463;51.070;16.998;2023-11-22T11:34:25;3.70;99.90
2907;DHT22;1463;51.070;16.998;2023-11-22T11:36:53;3.60;99.90
2907;DHT22;1463;51.070;16.998;2023-11-22T11:39:25;3.70;99.90
2907;DHT22;1463;51.070;16.998;2023-11-22T11:42:10;3.80;99.90
2907;DHT22;1463;51.070;16.998;2023-11-22T11:44:51;3.80;99.90
2907;DHT22;1463;51.070;16.998;2023-11-22T11:47:18;3.70;99.90
2907;DHT22;1463;51.070;16.998;2023-11-22T11:49:44;3.70;99.90
2907;DHT22;1463;51.070;16.998;2023-11-22T11:52:14;3.80;99.90
2907;DHT22;1463;51.070;16.998;2023-11-22T11:54:41;3.70;99.90
2907;DHT22;1463;51.070;16.998;2023-11-22T11:57:09;3.60;99.90
2907;DHT22;1463;51.070;16.998;2023-11-22T11:59:39;3.70;99.90
2907;DHT22;1463;51.070;16.998;2023-11-22T12:02:07;3.80;99.90
2907;DHT22;1463;51.070;16.998;2023-11-22T12:04:34;3.70;99.90
2907;DHT22;1463;51.070;16.998;2023-11-22T12:07:01;3.60;99.90
2907;DHT22;1463;51.070;16.998;2023-11-22T12:09:28;3.60;99.90
2907;DHT22;1463;51.070;16.998;2023-11-22T12:11:55;3.60;99.90
2907;DHT22;1463;51.070;16.998;2023-11-22T12:14:23;3.70;99.90
2907;DHT22;1463;51.070;16.998;2023-11-22T12:16:52;3.60;99.90
2907;DHT22;1463;51.070;16.998;2023-11-22T12:19:23;3.70;99.90
2907;DHT22;1463;51.070;16.998;2023-11-22T12:21:52;3.60;99.90
2907;DHT22;1463;51.070;16.998;2023-11-22T12:24:19;3.60;99.90
2907;DHT22;1463;51.070;16.998;2023-11-22T12:26:47;3.50;99.90
2907;DHT22;1463;51.070;16.998;2023-11-22T12:29:15;3.60;99.90
2907;DHT22;1463;51.070;16.998;2023-11-22T12:31:45;3.60;99.90
2907;DHT22;1463;51.070;16.998;2023-11-22T12:34:14;3.60;99.90
2907;DHT22;1463;51.070;16.998;2023-11-22T12:36:41;3.50;99.90
2907;DHT22;1463;51.070;16.998;2023-11-22T12:39:09;3.50;99.90
2907;DHT22;1463;51.070;16.998;2023-11-22T12:41:43;3.40;99.90
2907;DHT22;1463;51.070;16.998;2023-11-22T12:44:10;3.50;99.90
2907;DHT22;1463;51.070;16.998;2023-11-22T12:46:48;3.50;99.90
2907;DHT22;1463;51.070;16.998;2023-11-22T12:49:17;3.50;99.90
2907;DHT22;1463;51.070;16.998;2023-11-22T12:51:48;3.50;99.90
2907;DHT22;1463;51.070;16.998;2023-11-22T12:54:15;3.50;99.90
2907;DHT22;1463;51.070;16.998;2023-11-22T12:56:45;3.50;99.90
2907;DHT22;1463;51.070;16.998;2023-11-22T12:59:12;3.40;99.90
2907;DHT22;1463;51.070;16.998;2023-11-22T13:01:39;3.50;99.90
2907;DHT22;1463;51.070;16.998;2023-11-22T13:04:06;3.50;99.90
2907;DHT22;1463;51.070;16.998;2023-11-22T13:06:34;3.60;99.90
2907;DHT22;1463;51.070;16.998;2023-11-22T13:09:02;3.60;99.90
2907;DHT22;1463;51.070;16.998;2023-11-22T13:11:29;3.50;99.90
2907;DHT22;1463;51.070;16.998;2023-11-22T13:13:58;3.50;99.90
2907;DHT22;1463;51.070;16.998;2023-11-22T13:16:24;3.60;99.90
2907;DHT22;1463;51.070;16.998;2023-11-22T13:18:51;3.70;99.90
2907;DHT22;1463;51.070;16.998;2023-11-22T13:21:18;3.60;99.90
2907;DHT22;1463;51.070;16.998;2023-11-22T13:23:48;3.60;99.90
2907;DHT22;1463;51.070;16.998;2023-11-22T13:26:16;3.60;99.90
2907;DHT22;1463;51.070;16.998;2023-11-22T13:28:42;3.70;99.90
2907;DHT22;1463;51.070;16.998;2023-11-22T13:31:10;3.60;99.90
2907;DHT22;1463;51.070;16.998;2023-11-22T13:33:38;3.70;99.90
2907;DHT22;1463;51.070;16.998;2023-11-22T13:36:09;3.70;99.90
2907;DHT22;1463;51.070;16.998;2023-11-22T13:38:36;3.70;99.90
2907;DHT22;1463;51.070;16.998;2023-11-22T13:41:06;3.60;99.90
2907;DHT22;1463;51.070;16.998;2023-11-22T13:43:33;3.50;99.90
2907;DHT22;1463;51.070;16.998;2023-11-22T13:46:00;3.60;99.90
2907;DHT22;1463;51.070;16.998;2023-11-22T13:48:27;3.60;99.90
2907;DHT22;1463;51.070;16.998;2023-11-22T13:50:54;3.60;99.90
2907;DHT22;1463;51.070;16.998;2023-11-22T13:53:21;3.60;99.90
2907;DHT22;1463;51.070;16.998;2023-11-22T13:55:48;3.60;99.90
2907;DHT22;1463;51.070;16.998;2023-11-22T13:58:19;3.50;99.90
2907;DHT22;1463;51.070;16.998;2023-11-22T14:00:45;3.60;99.90
2907;DHT22;1463;51.070;16.998;2023-11-22T14:03:13;3.50;99.90
2907;DHT22;1463;51.070;16.998;2023-11-22T14:05:40;3.60;99.90
2907;DHT22;1463;51.070;16.998;2023-11-22T14:08:07;3.60;99.90
2907;DHT22;1463;51.070;16.998;2023-11-22T14:10:36;3.50;99.90
2907;DHT22;1463;51.070;16.998;2023-11-22T14:13:03;3.50;99.90
2907;DHT22;1463;51.070;16.998;2023-11-22T14:15:31;3.40;99.90
2907;DHT22;1463;51.070;16.998;2023-11-22T14:17:58;3.40;99.90
2907;DHT22;1463;51.070;16.998;2023-11-22T14:20:27;3.30;99.90
2907;DHT22;1463;51.070;16.998;2023-11-22T14:22:55;3.30;99.90
2907;DHT22;1463;51.070;16.998;2023-11-22T14:25:22;3.30;99.90
2907;DHT22;1463;51.070;16.998;2023-11-22T14:27:49;3.30;99.90
2907;DHT22;1463;51.070;16.998;2023-11-22T14:30:20;3.20;99.90
2907;DHT22;1463;51.070;16.998;2023-11-22T14:32:48;3.20;99.90
2907;DHT22;1463;51.070;16.998;2023-11-22T14:35:19;3.20;99.90
2907;DHT22;1463;51.070;16.998;2023-11-22T14:37:46;3.10;99.90
2907;DHT22;1463;51.070;16.998;2023-11-22T14:40:13;3.10;99.90
2907;DHT22;1463;51.070;16.998;2023-11-22T14:42:41;3.00;99.90
2907;DHT22;1463;51.070;16.998;2023-11-22T14:45:09;3.10;99.90
2907;DHT22;1463;51.070;16.998;2023-11-22T14:47:37;2.90;99.90
2907;DHT22;1463;51.070;16.998;2023-11-22T14:50:08;2.90;99.90
2907;DHT22;1463;51.070;16.998;2023-11-22T14:52:36;2.90;99.90
2907;DHT22;1463;51.070;16.998;2023-11-22T14:55:06;2.90;99.90
2907;DHT22;1463;51.070;16.998;2023-11-22T14:57:36;2.90;99.90
2907;DHT22;1463;51.070;16.998;2023-11-22T15:00:04;2.80;99.90
2907;DHT22;1463;51.070;16.998;2023-11-22T15:02:35;2.80;99.90
2907;DHT22;1463;51.070;16.998;2023-11-22T15:05:02;2.80;99.90
2907;DHT22;1463;51.070;16.998;2023-11-22T15:07:32;2.80;99.90
2907;DHT22;1463;51.070;16.998;2023-11-22T15:09:59;2.70;99.90
2907;DHT22;1463;51.070;16.998;2023-11-22T15:12:26;2.80;99.90
2907;DHT22;1463;51.070;16.998;2023-11-22T15:14:55;2.80;99.90
2907;DHT22;1463;51.070;16.998;2023-11-22T15:17:22;2.80;99.90
2907;DHT22;1463;51.070;16.998;2023-11-22T15:19:49;2.80;99.90
2907;DHT22;1463;51.070;16.998;2023-11-22T15:22:16;2.80;99.90
2907;DHT22;1463;51.070;16.998;2023-11-22T15:24:44;2.70;99.90
2907;DHT22;1463;51.070;16.998;2023-11-22T15:27:11;2.70;99.90
2907;DHT22;1463;51.070;16.998;2023-11-22T15:29:38;2.60;99.90
2907;DHT22;1463;51.070;16.998;2023-11-22T15:32:05;2.60;99.90
2907;DHT22;1463;51.070;16.998;2023-11-22T15:34:32;2.60;99.90
2907;DHT22;1463;51.070;16.998;2023-11-22T15:36:59;2.40;99.90
2907;DHT22;1463;51.070;16.998;2023-11-22T15:39:26;2.50;99.90
2907;DHT22;1463;51.070;16.998;2023-11-22T15:41:54;2.50;99.90
2907;DHT22;1463;51.070;16.998;2023-11-22T15:44:21;2.60;99.90
2907;DHT22;1463;51.070;16.998;2023-11-22T15:46:48;2.60;99.90
2907;DHT22;1463;51.070;16.998;2023-11-22T15:49:15;2.60;99.90
2907;DHT22;1463;51.070;16.998;2023-11-22T15:51:42;2.60;99.90
2907;DHT22;1463;51.070;16.998;2023-11-22T15:54:08;2.60;99.90
2907;DHT22;1463;51.070;16.998;2023-11-22T15:56:36;2.60;99.90
2907;DHT22;1463;51.070;16.998;2023-11-22T15:59:04;2.60;99.90
2907;DHT22;1463;51.070;16.998;2023-11-22T16:01:31;2.70;99.90
2907;DHT22;1463;51.070;16.998;2023-11-22T16:03:58;2.80;99.90
2907;DHT22;1463;51.070;16.998;2023-11-22T16:06:24;2.80;99.90